Time,TemperatureF,DewpointF,PressureIn,WindDirection,WindDirectionDegrees,WindSpeedMPH,WindSpeedGustMPH,Humidity,HourlyPrecipIn,Conditions,Clouds,dailyrainin,SoftwareType,DateUTC
2013-05-17 00:01:00,63.2,38.4,29.83,NW,315,8.7,8.7,39,-99.99,,,-99.99,tws,2013-05-17 04:01:00,
2013-05-17 00:02:00,63.3,38.5,29.83,NNW,337,10.2,10.2,39,-99.99,,,-99.99,tws,2013-05-17 04:02:00,
2013-05-17 00:04:00,62.8,38.7,29.83,North,360,6.2,6.2,40,-99.99,,,-99.99,tws,2013-05-17 04:04:00,
2013-05-17 00:05:00,63.4,38.4,29.84,NW,315,10.1,10.1,39,-99.99,,,-99.99,tws,2013-05-17 04:05:00,
2013-05-17 00:09:00,62.8,38.5,29.84,NW,315,3.7,3.7,40,-99.99,,,-99.99,tws,2013-05-17 04:09:00,
2013-05-17 00:14:00,62.7,38.6,29.84,North,360,0.0,0.0,40,-99.99,,,-99.99,tws,2013-05-17 04:14:00,
2013-05-17 00:19:00,62.3,38.9,29.84,NE,45,0.0,0.0,41,-99.99,,,-99.99,tws,2013-05-17 04:19:00,
2013-05-17 00:24:00,62.0,38.5,29.84,NE,45,0.0,0.0,41,-99.99,,,-99.99,tws,2013-05-17 04:24:00,
2013-05-17 00:29:00,61.2,38.7,29.84,NNE,22,0.0,0.0,43,-99.99,,,-99.99,tws,2013-05-17 04:29:00,
2013-05-17 00:34:00,60.6,39.1,29.84,North,0,0.0,0.0,44,-99.99,,,-99.99,tws,2013-05-17 04:34:00,
2013-05-17 00:39:00,60.8,38.7,29.84,NW,315,9.8,9.8,43,-99.99,,,-99.99,tws,2013-05-17 04:39:00,
2013-05-17 00:44:00,61.4,39.1,29.84,NW,315,8.7,8.7,43,-99.99,,,-99.99,tws,2013-05-17 04:44:00,
2013-05-17 00:49:00,60.9,39.3,29.86,NNE,22,2.8,2.8,44,-99.99,,,-99.99,tws,2013-05-17 04:49:00,
2013-05-17 00:54:00,59.7,38.9,29.85,WNW,292,0.0,0.0,45,-99.99,,,-99.99,tws,2013-05-17 04:54:00,
2013-05-17 00:59:00,59.4,38.8,29.86,West,270,0.2,0.2,46,-99.99,,,-99.99,tws,2013-05-17 04:59:00,
2013-05-17 01:04:00,59.4,39.3,29.86,NNE,22,4.1,4.1,46,-99.99,,,-99.99,tws,2013-05-17 05:04:00,
2013-05-17 01:09:00,58.6,39.3,29.86,NNE,22,0.0,0.0,48,-99.99,,,-99.99,tws,2013-05-17 05:09:00,
2013-05-17 01:14:00,57.9,38.8,29.86,NNE,22,3.0,3.0,48,-99.99,,,-99.99,tws,2013-05-17 05:14:00,
2013-05-17 01:19:00,57.7,39.4,29.86,NNE,22,0.2,0.2,50,-99.99,,,-99.99,tws,2013-05-17 05:19:00,
2013-05-17 01:24:00,57.5,39.2,29.87,NW,315,0.2,0.2,50,-99.99,,,-99.99,tws,2013-05-17 05:24:00,
2013-05-17 01:29:00,57.0,39.7,29.87,NW,315,6.5,6.5,52,-99.99,,,-99.99,tws,2013-05-17 05:29:00,
2013-05-17 01:34:00,57.3,40.0,29.87,NNW,337,4.2,4.2,52,-99.99,,,-99.99,tws,2013-05-17 05:34:00,
2013-05-17 01:39:00,56.8,39.7,29.88,North,0,4.1,4.1,52,-99.99,,,-99.99,tws,2013-05-17 05:39:00,
2013-05-17 01:44:00,57.2,40.1,29.88,NNW,337,3.8,3.8,52,-99.99,,,-99.99,tws,2013-05-17 05:44:00,
2013-05-17 01:49:00,57.0,40.1,29.88,WNW,292,8.5,8.5,52,-99.99,,,-99.99,tws,2013-05-17 05:49:00,
2013-05-17 01:54:00,56.7,40.6,29.88,NW,315,6.8,6.8,54,-99.99,,,-99.99,tws,2013-05-17 05:54:00,
2013-05-17 01:59:00,56.3,40.6,29.89,NNW,337,7.5,7.5,55,-99.99,,,-99.99,tws,2013-05-17 05:59:00,
2013-05-17 02:04:00,56.9,41.2,29.89,NNW,337,7.5,7.5,55,-99.99,,,-99.99,tws,2013-05-17 06:04:00,
2013-05-17 02:09:00,56.9,41.3,29.89,North,360,13.2,13.2,55,-99.99,,,-99.99,tws,2013-05-17 06:09:00,
2013-05-17 02:14:00,56.4,41.3,29.89,North,0,12.3,12.3,56,-99.99,,,-99.99,tws,2013-05-17 06:14:00,
2013-05-17 02:19:00,56.5,41.3,29.89,NW,315,11.7,11.7,56,-99.99,,,-99.99,tws,2013-05-17 06:19:00,
2013-05-17 02:24:00,56.3,41.5,29.89,NW,315,13.1,13.1,57,-99.99,,,-99.99,tws,2013-05-17 06:24:00,
2013-05-17 02:29:00,56.2,41.6,29.89,NNW,337,16.1,16.1,57,-99.99,,,-99.99,tws,2013-05-17 06:29:00,
2013-05-17 02:34:00,55.8,41.6,29.90,NNW,337,10.3,10.3,58,-99.99,,,-99.99,tws,2013-05-17 06:34:00,
2013-05-17 02:39:00,55.7,42.0,29.90,NNW,337,9.3,9.3,59,-99.99,,,-99.99,tws,2013-05-17 06:39:00,
2013-05-17 02:44:00,55.2,42.0,29.91,NE,45,8.1,8.1,60,-99.99,,,-99.99,tws,2013-05-17 06:44:00,
2013-05-17 02:49:00,55.1,41.9,29.91,NW,315,7.9,7.9,60,-99.99,,,-99.99,tws,2013-05-17 06:49:00,
2013-05-17 02:54:00,55.1,41.9,29.91,WNW,292,9.4,9.4,60,-99.99,,,-99.99,tws,2013-05-17 06:54:00,
2013-05-17 02:59:00,54.4,41.9,29.91,North,360,8.6,8.6,62,-99.99,,,-99.99,tws,2013-05-17 06:59:00,
2013-05-17 03:04:00,54.4,42.0,29.92,North,360,3.2,3.2,62,-99.99,,,-99.99,tws,2013-05-17 07:04:00,
2013-05-17 03:09:00,54.3,42.1,29.91,NW,315,3.1,3.1,63,-99.99,,,-99.99,tws,2013-05-17 07:09:00,
2013-05-17 03:14:00,54.0,42.0,29.92,West,270,2.6,2.6,63,-99.99,,,-99.99,tws,2013-05-17 07:14:00,
2013-05-17 03:19:00,54.0,42.0,29.91,North,360,5.3,5.3,63,-99.99,,,-99.99,tws,2013-05-17 07:19:00,
2013-05-17 03:24:00,53.7,42.1,29.91,NNE,22,4.4,4.4,64,-99.99,,,-99.99,tws,2013-05-17 07:24:00,
2013-05-17 03:29:00,53.7,42.0,29.92,NNE,22,6.3,6.3,64,-99.99,,,-99.99,tws,2013-05-17 07:29:00,
2013-05-17 03:34:00,53.4,42.0,29.92,NNW,337,1.8,1.8,65,-99.99,,,-99.99,tws,2013-05-17 07:34:00,
2013-05-17 03:39:00,53.4,42.0,29.92,NNW,337,4.3,4.3,65,-99.99,,,-99.99,tws,2013-05-17 07:39:00,
2013-05-17 03:44:00,53.3,41.6,29.92,NNW,337,4.5,4.5,64,-99.99,,,-99.99,tws,2013-05-17 07:44:00,
2013-05-17 03:49:00,53.4,41.5,29.92,North,0,2.9,2.9,63,-99.99,,,-99.99,tws,2013-05-17 07:49:00,
2013-05-17 03:54:00,53.4,41.5,29.92,North,0,13.0,13.0,63,-99.99,,,-99.99,tws,2013-05-17 07:54:00,
2013-05-17 03:59:00,53.2,41.4,29.92,North,360,12.3,12.3,63,-99.99,,,-99.99,tws,2013-05-17 07:59:00,
2013-05-17 04:04:00,53.2,41.2,29.93,West,270,7.9,7.9,63,-99.99,,,-99.99,tws,2013-05-17 08:04:00,
2013-05-17 04:09:00,52.7,40.9,29.93,NE,45,7.9,7.9,63,-99.99,,,-99.99,tws,2013-05-17 08:09:00,
2013-05-17 04:14:00,52.8,40.9,29.93,NNW,337,10.1,10.1,63,-99.99,,,-99.99,tws,2013-05-17 08:14:00,
2013-05-17 04:19:00,52.4,40.8,29.93,North,0,7.1,7.1,64,-99.99,,,-99.99,tws,2013-05-17 08:19:00,
2013-05-17 04:24:00,52.3,41.0,29.94,WNW,292,5.8,5.8,65,-99.99,,,-99.99,tws,2013-05-17 08:24:00,
2013-05-17 04:29:00,52.3,40.9,29.94,NW,315,2.8,2.8,64,-99.99,,,-99.99,tws,2013-05-17 08:29:00,
2013-05-17 04:34:00,52.3,41.0,29.94,SW,225,0.1,0.1,65,-99.99,,,-99.99,tws,2013-05-17 08:34:00,
2013-05-17 04:39:00,52.0,40.6,29.94,ENE,67,1.1,1.1,64,-99.99,,,-99.99,tws,2013-05-17 08:39:00,
2013-05-17 04:44:00,51.8,40.7,29.95,NW,315,2.7,2.7,65,-99.99,,,-99.99,tws,2013-05-17 08:44:00,
2013-05-17 04:49:00,51.7,40.5,29.95,North,0,2.0,2.0,65,-99.99,,,-99.99,tws,2013-05-17 08:49:00,
2013-05-17 04:54:00,51.8,40.4,29.95,West,270,0.9,0.9,64,-99.99,,,-99.99,tws,2013-05-17 08:54:00,
2013-05-17 04:59:00,51.6,40.0,29.95,NNW,337,3.2,3.2,64,-99.99,,,-99.99,tws,2013-05-17 08:59:00,
2013-05-17 05:04:00,51.4,40.1,29.95,NW,315,4.8,4.8,65,-99.99,,,-99.99,tws,2013-05-17 09:04:00,
2013-05-17 05:09:00,51.5,40.2,29.96,NE,45,0.0,0.0,65,-99.99,,,-99.99,tws,2013-05-17 09:09:00,
2013-05-17 05:14:00,50.7,40.1,29.96,NW,315,1.0,1.0,66,-99.99,,,-99.99,tws,2013-05-17 09:14:00,
2013-05-17 05:19:00,50.4,40.3,29.97,SSW,202,0.2,0.2,68,-99.99,,,-99.99,tws,2013-05-17 09:19:00,
2013-05-17 05:24:00,48.7,0.0,29.97,WSW,247,0.0,0.0,-999,-99.99,,,-99.99,tws,2013-05-17 09:24:00,
2013-05-17 05:29:00,48.9,40.9,29.97,ESE,112,0.0,0.0,73,-99.99,,,-99.99,tws,2013-05-17 09:29:00,
2013-05-17 05:34:00,48.1,41.3,29.97,SE,135,0.0,0.0,77,-99.99,,,-99.99,tws,2013-05-17 09:34:00,
2013-05-17 05:39:00,48.5,41.1,29.98,SE,135,0.0,0.0,75,-99.99,,,-99.99,tws,2013-05-17 09:39:00,
2013-05-17 05:44:00,48.0,41.2,29.98,ESE,112,0.0,0.0,77,-99.99,,,-99.99,tws,2013-05-17 09:44:00,
2013-05-17 05:50:00,48.2,40.9,29.98,ESE,112,0.2,0.2,75,-99.99,,,-99.99,tws,2013-05-17 09:50:00,
2013-05-17 05:55:00,48.0,40.8,29.98,ESE,112,0.0,0.0,75,-99.99,,,-99.99,tws,2013-05-17 09:55:00,
2013-05-17 06:00:00,48.8,40.7,29.99,East,90,0.0,0.0,73,-99.99,,,-99.99,tws,2013-05-17 10:00:00,
2013-05-17 06:05:00,48.6,40.7,30.00,ENE,67,3.6,3.6,74,-99.99,,,-99.99,tws,2013-05-17 10:05:00,
2013-05-17 06:10:00,49.3,40.8,30.00,ENE,67,0.4,0.4,72,-99.99,,,-99.99,tws,2013-05-17 10:10:00,
2013-05-17 06:15:00,50.1,40.8,30.00,NE,45,0.0,0.0,69,-99.99,,,-99.99,tws,2013-05-17 10:15:00,
2013-05-17 06:20:00,49.9,40.9,30.00,SE,135,0.7,0.7,71,-99.99,,,-99.99,tws,2013-05-17 10:20:00,
2013-05-17 06:25:00,49.3,41.2,30.01,ENE,67,0.0,0.0,73,-99.99,,,-99.99,tws,2013-05-17 10:25:00,
2013-05-17 06:30:00,49.8,41.4,30.01,NNE,22,5.3,5.3,72,-99.99,,,-99.99,tws,2013-05-17 10:30:00,
2013-05-17 06:35:00,49.9,41.4,30.02,ENE,67,4.0,4.0,72,-99.99,,,-99.99,tws,2013-05-17 10:35:00,
2013-05-17 06:40:00,50.0,41.6,30.02,East,90,4.8,4.8,72,-99.99,,,-99.99,tws,2013-05-17 10:40:00,
2013-05-17 06:45:00,50.4,41.4,30.02,ENE,67,4.1,4.1,71,-99.99,,,-99.99,tws,2013-05-17 10:45:00,
2013-05-17 06:50:00,50.9,41.9,30.02,ESE,112,1.5,1.5,70,-99.99,,,-99.99,tws,2013-05-17 10:50:00,
2013-05-17 06:55:00,51.2,41.7,30.02,ENE,67,0.0,0.0,69,-99.99,,,-99.99,tws,2013-05-17 10:55:00,
2013-05-17 07:00:00,50.8,41.2,30.03,NW,315,5.2,5.2,69,-99.99,,,-99.99,tws,2013-05-17 11:00:00,
2013-05-17 07:05:00,50.9,40.9,30.03,NNW,337,13.0,13.0,68,-99.99,,,-99.99,tws,2013-05-17 11:05:00,
2013-05-17 07:10:00,50.9,40.2,30.02,ENE,67,16.7,16.7,66,-99.99,,,-99.99,tws,2013-05-17 11:10:00,
2013-05-17 07:15:00,51.6,40.6,30.02,North,360,13.4,13.4,65,-99.99,,,-99.99,tws,2013-05-17 11:15:00,
2013-05-17 07:20:00,51.4,40.4,30.02,East,90,17.9,17.9,65,-99.99,,,-99.99,tws,2013-05-17 11:20:00,
2013-05-17 07:25:00,51.4,40.3,30.02,NNE,22,16.6,16.6,65,-99.99,,,-99.99,tws,2013-05-17 11:25:00,
2013-05-17 07:30:00,51.4,40.2,30.02,NNE,22,22.5,22.5,65,-99.99,,,-99.99,tws,2013-05-17 11:30:00,
2013-05-17 07:35:00,51.6,40.0,30.04,NNE,22,15.2,15.2,64,-99.99,,,-99.99,tws,2013-05-17 11:35:00,
2013-05-17 07:40:00,51.9,40.7,30.03,NNE,22,13.1,13.1,65,-99.99,,,-99.99,tws,2013-05-17 11:40:00,
2013-05-17 07:45:00,51.8,40.3,30.04,NNW,337,17.3,17.3,64,-99.99,,,-99.99,tws,2013-05-17 11:45:00,
2013-05-17 07:51:00,52.3,40.6,30.04,NE,45,5.0,5.0,64,-99.99,,,-99.99,tws,2013-05-17 11:51:00,
2013-05-17 07:56:00,52.7,40.6,30.04,NNE,22,14.5,14.5,63,-99.99,,,-99.99,tws,2013-05-17 11:56:00,
2013-05-17 08:01:00,52.6,40.3,30.04,North,0,21.2,21.2,62,-99.99,,,-99.99,tws,2013-05-17 12:01:00,
2013-05-17 08:06:00,53.2,40.6,30.04,NE,45,12.1,12.1,62,-99.99,,,-99.99,tws,2013-05-17 12:06:00,
2013-05-17 08:11:00,53.8,40.9,30.05,NW,315,11.9,11.9,61,-99.99,,,-99.99,tws,2013-05-17 12:11:00,
2013-05-17 08:16:00,54.2,41.0,30.05,North,0,17.6,17.6,60,-99.99,,,-99.99,tws,2013-05-17 12:16:00,
2013-05-17 08:21:00,54.0,41.0,30.05,ENE,67,11.7,11.7,61,-99.99,,,-99.99,tws,2013-05-17 12:21:00,
2013-05-17 08:26:00,53.1,40.4,30.05,North,360,16.5,16.5,61,-99.99,,,-99.99,tws,2013-05-17 12:26:00,
2013-05-17 08:31:00,53.2,40.4,30.05,ENE,67,7.2,7.2,61,-99.99,,,-99.99,tws,2013-05-17 12:31:00,
2013-05-17 08:36:00,53.2,40.4,30.07,North,360,15.6,15.6,61,-99.99,,,-99.99,tws,2013-05-17 12:36:00,
2013-05-17 08:41:00,54.0,41.3,30.06,NW,315,5.2,5.2,61,-99.99,,,-99.99,tws,2013-05-17 12:41:00,
2013-05-17 08:46:00,54.6,41.4,30.07,NNW,337,7.8,7.8,60,-99.99,,,-99.99,tws,2013-05-17 12:46:00,
2013-05-17 08:51:00,54.4,41.4,30.07,North,0,13.3,13.3,61,-99.99,,,-99.99,tws,2013-05-17 12:51:00,
2013-05-17 08:56:00,54.6,41.4,30.07,North,0,5.8,5.8,60,-99.99,,,-99.99,tws,2013-05-17 12:56:00,
2013-05-17 09:01:00,54.5,40.7,30.07,NW,315,12.2,12.2,59,-99.99,,,-99.99,tws,2013-05-17 13:01:00,
2013-05-17 09:06:00,55.1,41.2,30.07,NE,45,13.8,13.8,59,-99.99,,,-99.99,tws,2013-05-17 13:06:00,
2013-05-17 09:11:00,55.8,41.6,30.07,NW,315,14.6,14.6,58,-99.99,,,-99.99,tws,2013-05-17 13:11:00,
2013-05-17 09:16:00,55.5,41.1,30.07,ESE,112,11.4,11.4,57,-99.99,,,-99.99,tws,2013-05-17 13:16:00,
2013-05-17 09:21:00,57.0,42.8,30.07,ENE,67,7.2,7.2,58,-99.99,,,-99.99,tws,2013-05-17 13:21:00,
2013-05-17 09:26:00,56.7,41.6,30.07,NW,315,8.6,8.6,56,-99.99,,,-99.99,tws,2013-05-17 13:26:00,
2013-05-17 09:31:00,56.4,41.6,30.07,North,0,9.8,9.8,57,-99.99,,,-99.99,tws,2013-05-17 13:31:00,
2013-05-17 09:36:00,57.3,42.7,30.07,NNW,337,6.2,6.2,57,-99.99,,,-99.99,tws,2013-05-17 13:36:00,
2013-05-17 09:41:00,56.9,42.3,30.07,North,0,12.8,12.8,57,-99.99,,,-99.99,tws,2013-05-17 13:41:00,
2013-05-17 09:46:00,56.1,41.0,30.08,West,270,22.3,22.3,56,-99.99,,,-99.99,tws,2013-05-17 13:46:00,
2013-05-17 09:51:00,57.3,42.4,30.08,NNW,337,9.0,9.0,56,-99.99,,,-99.99,tws,2013-05-17 13:51:00,
2013-05-17 09:56:00,56.0,40.4,30.08,NW,315,23.1,23.1,55,-99.99,,,-99.99,tws,2013-05-17 13:56:00,
2013-05-17 10:01:00,56.7,41.3,30.09,NW,315,13.5,13.5,56,-99.99,,,-99.99,tws,2013-05-17 14:01:00,
2013-05-17 10:06:00,60.0,43.8,30.08,NNE,22,9.5,9.5,54,-99.99,,,-99.99,tws,2013-05-17 14:06:00,
2013-05-17 10:11:00,58.8,42.3,30.08,NNW,337,7.3,7.3,54,-99.99,,,-99.99,tws,2013-05-17 14:11:00,
2013-05-17 10:16:00,60.4,43.7,30.09,North,360,2.8,2.8,53,-99.99,,,-99.99,tws,2013-05-17 14:16:00,
2013-05-17 10:21:00,61.7,44.4,30.09,NNE,22,10.5,10.5,52,-99.99,,,-99.99,tws,2013-05-17 14:21:00,
2013-05-17 10:26:00,61.7,44.5,30.09,NE,45,9.2,9.2,52,-99.99,,,-99.99,tws,2013-05-17 14:26:00,
2013-05-17 10:31:00,58.8,41.5,30.09,NW,315,16.3,16.3,52,-99.99,,,-99.99,tws,2013-05-17 14:31:00,
2013-05-17 10:37:00,61.0,43.5,30.09,NW,315,13.5,13.5,52,-99.99,,,-99.99,tws,2013-05-17 14:37:00,
2013-05-17 10:42:00,63.9,45.3,30.09,NE,45,13.3,13.3,50,-99.99,,,-99.99,tws,2013-05-17 14:42:00,
2013-05-17 10:47:00,63.2,44.8,30.09,NNW,337,10.2,10.2,50,-99.99,,,-99.99,tws,2013-05-17 14:47:00,
2013-05-17 10:52:00,63.4,45.2,30.09,NW,315,10.1,10.1,51,-99.99,,,-99.99,tws,2013-05-17 14:52:00,
2013-05-17 10:57:00,63.0,44.8,30.09,North,360,15.0,15.0,51,-99.99,,,-99.99,tws,2013-05-17 14:57:00,
2013-05-17 11:02:00,62.6,44.8,30.09,WNW,292,9.4,9.4,51,-99.99,,,-99.99,tws,2013-05-17 15:02:00,
2013-05-17 11:07:00,64.5,45.9,30.09,ENE,67,5.1,5.1,50,-99.99,,,-99.99,tws,2013-05-17 15:07:00,
2013-05-17 11:12:00,63.0,44.7,30.09,NE,45,11.8,11.8,50,-99.99,,,-99.99,tws,2013-05-17 15:12:00,
2013-05-17 11:17:00,62.1,43.4,30.09,North,360,12.9,12.9,50,-99.99,,,-99.99,tws,2013-05-17 15:17:00,
2013-05-17 11:22:00,64.4,44.6,30.09,NE,45,11.9,11.9,48,-99.99,,,-99.99,tws,2013-05-17 15:22:00,
2013-05-17 11:27:00,64.2,45.1,30.09,NNW,337,5.5,5.5,49,-99.99,,,-99.99,tws,2013-05-17 15:27:00,
2013-05-17 11:32:00,65.9,45.1,30.09,NNE,22,13.4,13.4,46,-99.99,,,-99.99,tws,2013-05-17 15:32:00,
2013-05-17 11:37:00,65.2,45.2,30.09,NW,315,8.6,8.6,47,-99.99,,,-99.99,tws,2013-05-17 15:37:00,
2013-05-17 11:42:00,64.3,44.0,30.09,ENE,67,16.9,16.9,47,-99.99,,,-99.99,tws,2013-05-17 15:42:00,
2013-05-17 11:47:00,67.6,46.4,30.09,North,0,5.3,5.3,46,-99.99,,,-99.99,tws,2013-05-17 15:47:00,
2013-05-17 11:52:00,65.9,44.5,30.09,NNE,22,13.0,13.0,45,-99.99,,,-99.99,tws,2013-05-17 15:52:00,
2013-05-17 11:57:00,65.6,44.5,30.09,NNE,22,17.5,17.5,46,-99.99,,,-99.99,tws,2013-05-17 15:57:00,
2013-05-17 12:02:00,66.5,46.1,30.09,NW,315,12.5,12.5,47,-99.99,,,-99.99,tws,2013-05-17 16:02:00,
2013-05-17 12:07:00,66.7,46.9,30.09,WNW,292,6.9,6.9,48,-99.99,,,-99.99,tws,2013-05-17 16:07:00,
2013-05-17 12:12:00,68.7,46.9,30.09,North,360,13.5,13.5,45,-99.99,,,-99.99,tws,2013-05-17 16:12:00,
2013-05-17 12:17:00,67.8,46.3,30.08,NE,45,9.5,9.5,45,-99.99,,,-99.99,tws,2013-05-17 16:17:00,
2013-05-17 12:22:00,68.6,47.5,30.09,East,90,9.2,9.2,46,-99.99,,,-99.99,tws,2013-05-17 16:22:00,
2013-05-17 12:27:00,67.5,45.9,30.09,NNW,337,17.9,17.9,45,-99.99,,,-99.99,tws,2013-05-17 16:27:00,
2013-05-17 12:32:00,67.6,46.1,30.08,North,360,12.9,12.9,45,-99.99,,,-99.99,tws,2013-05-17 16:32:00,
2013-05-17 12:37:00,68.7,47.3,30.08,WNW,292,9.4,9.4,45,-99.99,,,-99.99,tws,2013-05-17 16:37:00,
2013-05-17 12:42:00,67.6,46.1,30.08,NE,45,20.0,20.0,45,-99.99,,,-99.99,tws,2013-05-17 16:42:00,
2013-05-17 12:47:00,64.7,43.3,30.08,NNW,337,20.2,20.2,45,-99.99,,,-99.99,tws,2013-05-17 16:47:00,
2013-05-17 12:52:00,66.9,46.3,30.08,NE,45,10.9,10.9,47,-99.99,,,-99.99,tws,2013-05-17 16:52:00,
2013-05-17 12:57:00,69.6,48.0,30.08,East,90,10.8,10.8,45,-99.99,,,-99.99,tws,2013-05-17 16:57:00,
2013-05-17 13:02:00,70.5,48.1,30.08,NE,45,15.7,15.7,44,-99.99,,,-99.99,tws,2013-05-17 17:02:00,
2013-05-17 13:07:00,69.6,47.2,30.09,WNW,292,9.6,9.6,44,-99.99,,,-99.99,tws,2013-05-17 17:07:00,
2013-05-17 13:12:00,69.5,46.7,30.08,NNE,22,10.1,10.1,43,-99.99,,,-99.99,tws,2013-05-17 17:12:00,
2013-05-17 13:17:00,70.2,48.0,30.08,NE,45,15.9,15.9,44,-99.99,,,-99.99,tws,2013-05-17 17:17:00,
2013-05-17 13:22:00,68.7,46.4,30.08,NE,45,15.0,15.0,44,-99.99,,,-99.99,tws,2013-05-17 17:22:00,
2013-05-17 13:27:00,72.2,49.9,30.08,NNE,22,13.2,13.2,44,-99.99,,,-99.99,tws,2013-05-17 17:27:00,
2013-05-17 13:32:00,71.6,49.3,30.08,North,0,2.9,2.9,44,-99.99,,,-99.99,tws,2013-05-17 17:32:00,
2013-05-17 13:37:00,69.0,46.1,30.08,NNE,22,24.0,24.0,43,-99.99,,,-99.99,tws,2013-05-17 17:37:00,
2013-05-17 13:42:00,71.0,47.6,30.08,NE,45,20.4,20.4,42,-99.99,,,-99.99,tws,2013-05-17 17:42:00,
2013-05-17 13:47:00,70.6,47.2,30.08,NNW,337,11.0,11.0,42,-99.99,,,-99.99,tws,2013-05-17 17:47:00,
2013-05-17 13:52:00,71.9,47.6,30.08,NE,45,1.5,1.5,41,-99.99,,,-99.99,tws,2013-05-17 17:52:00,
2013-05-17 13:57:00,72.5,48.6,30.08,NNW,337,13.6,13.6,42,-99.99,,,-99.99,tws,2013-05-17 17:57:00,
2013-05-17 14:02:00,71.4,47.5,30.08,NNE,22,20.1,20.1,42,-99.99,,,-99.99,tws,2013-05-17 18:02:00,
2013-05-17 14:07:00,72.9,48.4,30.09,NW,315,9.4,9.4,41,-99.99,,,-99.99,tws,2013-05-17 18:07:00,
2013-05-17 14:12:00,71.3,48.2,30.08,North,0,11.3,11.3,43,-99.99,,,-99.99,tws,2013-05-17 18:12:00,
2013-05-17 14:17:00,71.4,48.0,30.08,NNW,337,4.0,4.0,42,-99.99,,,-99.99,tws,2013-05-17 18:17:00,
2013-05-17 14:22:00,72.4,47.8,30.08,North,0,21.6,21.6,41,-99.99,,,-99.99,tws,2013-05-17 18:22:00,
2013-05-17 14:27:00,69.3,45.1,30.08,NE,45,15.5,15.5,41,-99.99,,,-99.99,tws,2013-05-17 18:27:00,
2013-05-17 14:32:00,70.5,46.7,30.08,NW,315,14.2,14.2,42,-99.99,,,-99.99,tws,2013-05-17 18:32:00,
2013-05-17 14:37:00,73.4,48.8,30.08,NE,45,13.4,13.4,41,-99.99,,,-99.99,tws,2013-05-17 18:37:00,
2013-05-17 14:42:00,68.7,45.3,30.08,North,360,16.3,16.3,42,-99.99,,,-99.99,tws,2013-05-17 18:42:00,
2013-05-17 14:47:00,69.2,45.0,30.08,NNW,337,9.6,9.6,41,-99.99,,,-99.99,tws,2013-05-17 18:47:00,
2013-05-17 14:52:00,71.0,46.9,30.08,NNE,22,17.9,17.9,41,-99.99,,,-99.99,tws,2013-05-17 18:52:00,
2013-05-17 14:57:00,73.0,48.0,30.08,NNW,337,6.2,6.2,40,-99.99,,,-99.99,tws,2013-05-17 18:57:00,
2013-05-17 15:02:00,72.0,47.5,30.08,ENE,67,11.3,11.3,41,-99.99,,,-99.99,tws,2013-05-17 19:02:00,
2013-05-17 15:07:00,72.6,49.2,30.08,NNW,337,10.2,10.2,43,-99.99,,,-99.99,tws,2013-05-17 19:07:00,
2013-05-17 15:12:00,71.0,46.1,30.08,NNE,22,19.9,19.9,40,-99.99,,,-99.99,tws,2013-05-17 19:12:00,
2013-05-17 15:17:00,70.5,45.8,30.08,North,0,12.6,12.6,40,-99.99,,,-99.99,tws,2013-05-17 19:17:00,
2013-05-17 15:22:00,73.0,47.8,30.08,North,0,15.5,15.5,40,-99.99,,,-99.99,tws,2013-05-17 19:22:00,
2013-05-17 15:27:00,71.4,46.5,30.08,North,0,15.0,15.0,40,-99.99,,,-99.99,tws,2013-05-17 19:27:00,
2013-05-17 15:32:00,72.4,47.4,30.08,NNW,337,12.9,12.9,40,-99.99,,,-99.99,tws,2013-05-17 19:32:00,
2013-05-17 15:37:00,71.2,47.0,30.08,NE,45,16.0,16.0,41,-99.99,,,-99.99,tws,2013-05-17 19:37:00,
2013-05-17 15:42:00,71.2,46.8,30.08,NE,45,13.6,13.6,41,-99.99,,,-99.99,tws,2013-05-17 19:42:00,
2013-05-17 15:47:00,73.5,47.3,30.08,ENE,67,12.8,12.8,38,-99.99,,,-99.99,tws,2013-05-17 19:47:00,
2013-05-17 15:52:00,74.3,47.9,30.08,NE,45,11.5,11.5,38,-99.99,,,-99.99,tws,2013-05-17 19:52:00,
2013-05-17 15:57:00,74.7,48.9,30.08,NE,45,9.2,9.2,39,-99.99,,,-99.99,tws,2013-05-17 19:57:00,
2013-05-17 16:02:00,75.2,49.4,30.07,NNW,337,2.7,2.7,39,-99.99,,,-99.99,tws,2013-05-17 20:02:00,
2013-05-17 16:07:00,71.6,45.1,30.07,NE,45,6.3,6.3,38,-99.99,,,-99.99,tws,2013-05-17 20:07:00,
2013-05-17 16:12:00,73.3,48.3,30.07,North,360,7.9,7.9,40,-99.99,,,-99.99,tws,2013-05-17 20:12:00,
2013-05-17 16:17:00,71.9,46.9,30.08,NE,45,8.5,8.5,40,-99.99,,,-99.99,tws,2013-05-17 20:17:00,
2013-05-17 16:22:00,71.7,47.2,30.08,NNW,337,5.4,5.4,41,-99.99,,,-99.99,tws,2013-05-17 20:22:00,
2013-05-17 16:27:00,72.9,48.7,30.07,North,360,2.0,2.0,41,-99.99,,,-99.99,tws,2013-05-17 20:27:00,
2013-05-17 16:32:00,75.3,50.5,30.08,NE,45,8.3,8.3,41,-99.99,,,-99.99,tws,2013-05-17 20:32:00,
2013-05-17 16:37:00,75.5,48.5,30.08,NE,45,18.2,18.2,38,-99.99,,,-99.99,tws,2013-05-17 20:37:00,
2013-05-17 16:42:00,76.8,49.0,30.08,ENE,67,8.3,8.3,37,-99.99,,,-99.99,tws,2013-05-17 20:42:00,
2013-05-17 16:47:00,75.3,48.4,30.08,NE,45,10.7,10.7,38,-99.99,,,-99.99,tws,2013-05-17 20:47:00,
2013-05-17 16:52:00,75.6,49.7,30.08,SE,135,11.0,11.0,39,-99.99,,,-99.99,tws,2013-05-17 20:52:00,
2013-05-17 16:57:00,77.0,49.3,30.08,NNE,22,1.0,1.0,37,-99.99,,,-99.99,tws,2013-05-17 20:57:00,
2013-05-17 17:02:00,76.2,48.5,30.08,NE,45,12.7,12.7,37,-99.99,,,-99.99,tws,2013-05-17 21:02:00,
2013-05-17 17:07:00,76.2,49.6,30.08,NE,45,5.0,5.0,38,-99.99,,,-99.99,tws,2013-05-17 21:07:00,
2013-05-17 17:12:00,77.4,48.8,30.08,East,90,11.6,11.6,36,-99.99,,,-99.99,tws,2013-05-17 21:12:00,
2013-05-17 17:17:00,77.7,49.1,30.08,NNE,22,13.5,13.5,36,-99.99,,,-99.99,tws,2013-05-17 21:17:00,
2013-05-17 17:22:00,75.9,48.8,30.08,NE,45,12.1,12.1,37,-99.99,,,-99.99,tws,2013-05-17 21:22:00,
2013-05-17 17:27:00,77.0,48.8,30.08,NNE,22,7.9,7.9,36,-99.99,,,-99.99,tws,2013-05-17 21:27:00,
2013-05-17 17:32:00,76.4,49.4,30.08,East,90,10.5,10.5,38,-99.99,,,-99.99,tws,2013-05-17 21:32:00,
2013-05-17 17:37:00,77.5,49.9,30.08,NNE,22,8.6,8.6,37,-99.99,,,-99.99,tws,2013-05-17 21:37:00,
2013-05-17 17:42:00,76.1,48.6,30.09,NW,315,13.3,13.3,37,-99.99,,,-99.99,tws,2013-05-17 21:42:00,
2013-05-17 17:47:00,76.5,49.1,30.09,NNE,22,6.7,6.7,37,-99.99,,,-99.99,tws,2013-05-17 21:47:00,
2013-05-17 17:52:00,78.6,49.1,30.09,NNE,22,8.6,8.6,35,-99.99,,,-99.99,tws,2013-05-17 21:52:00,
2013-05-17 17:57:00,75.8,48.9,30.08,East,90,11.5,11.5,38,-99.99,,,-99.99,tws,2013-05-17 21:57:00,
2013-05-17 18:02:00,76.6,48.8,30.09,ENE,67,9.7,9.7,37,-99.99,,,-99.99,tws,2013-05-17 22:02:00,
2013-05-17 18:07:00,77.4,48.8,30.09,NNE,22,3.3,3.3,36,-99.99,,,-99.99,tws,2013-05-17 22:07:00,
2013-05-17 18:12:00,76.8,48.6,30.09,SE,135,3.8,3.8,36,-99.99,,,-99.99,tws,2013-05-17 22:12:00,
2013-05-17 18:17:00,78.5,49.8,30.09,NE,45,4.7,4.7,36,-99.99,,,-99.99,tws,2013-05-17 22:17:00,
2013-05-17 18:22:00,77.3,47.9,30.09,NE,45,6.9,6.9,35,-99.99,,,-99.99,tws,2013-05-17 22:22:00,
2013-05-17 18:27:00,76.7,48.9,30.09,NE,45,4.3,4.3,37,-99.99,,,-99.99,tws,2013-05-17 22:27:00,
2013-05-17 18:32:00,75.9,48.0,30.09,NNE,22,10.4,10.4,36,-99.99,,,-99.99,tws,2013-05-17 22:32:00,
2013-05-17 18:37:00,77.3,48.5,30.09,ENE,67,8.1,8.1,35,-99.99,,,-99.99,tws,2013-05-17 22:37:00,
2013-05-17 18:42:00,75.3,46.9,30.09,NE,45,14.5,14.5,35,-99.99,,,-99.99,tws,2013-05-17 22:42:00,
2013-05-17 18:47:00,76.4,48.3,30.10,East,90,4.2,4.2,36,-99.99,,,-99.99,tws,2013-05-17 22:47:00,
2013-05-17 18:52:00,75.8,46.9,30.09,East,90,3.3,3.3,35,-99.99,,,-99.99,tws,2013-05-17 22:52:00,
2013-05-17 18:57:00,76.5,48.2,30.11,North,360,2.3,2.3,36,-99.99,,,-99.99,tws,2013-05-17 22:57:00,
2013-05-17 19:02:00,73.4,47.7,30.11,NNE,22,1.7,1.7,39,-99.99,,,-99.99,tws,2013-05-17 23:02:00,
2013-05-17 19:07:00,75.6,48.2,30.10,SSE,157,7.9,7.9,37,-99.99,,,-99.99,tws,2013-05-17 23:07:00,
2013-05-17 19:12:00,71.3,47.7,30.11,ESE,112,2.8,2.8,42,-99.99,,,-99.99,tws,2013-05-17 23:12:00,
2013-05-17 19:17:00,72.2,47.2,30.11,NE,45,5.0,5.0,40,-99.99,,,-99.99,tws,2013-05-17 23:17:00,
2013-05-17 19:22:00,69.3,45.7,30.11,ESE,112,7.2,7.2,42,-99.99,,,-99.99,tws,2013-05-17 23:22:00,
2013-05-17 19:27:00,68.6,45.5,30.11,ENE,67,6.8,6.8,43,-99.99,,,-99.99,tws,2013-05-17 23:27:00,
2013-05-17 19:32:00,69.9,46.3,30.11,East,90,3.3,3.3,42,-99.99,,,-99.99,tws,2013-05-17 23:32:00,
2013-05-17 19:37:00,69.3,46.0,30.11,ENE,67,3.4,3.4,42,-99.99,,,-99.99,tws,2013-05-17 23:37:00,
2013-05-17 19:43:00,68.5,46.6,30.11,North,0,0.0,0.0,45,-99.99,,,-99.99,tws,2013-05-17 23:43:00,
2013-05-17 19:48:00,68.1,45.7,30.12,NNW,337,0.0,0.0,44,-99.99,,,-99.99,tws,2013-05-17 23:48:00,
2013-05-17 19:53:00,67.2,45.3,30.12,NW,315,0.0,0.0,44,-99.99,,,-99.99,tws,2013-05-17 23:53:00,
2013-05-17 19:58:00,67.9,45.6,30.12,NW,315,0.0,0.0,44,-99.99,,,-99.99,tws,2013-05-17 23:58:00,
2013-05-17 20:03:00,65.9,46.0,30.13,WNW,292,0.0,0.0,48,-99.99,,,-99.99,tws,2013-05-18 00:03:00,
2013-05-17 20:08:00,63.7,44.3,30.13,West,270,0.0,0.0,48,-99.99,,,-99.99,tws,2013-05-18 00:08:00,
2013-05-17 20:13:00,62.8,44.7,30.13,West,270,0.0,0.0,51,-99.99,,,-99.99,tws,2013-05-18 00:13:00,
2013-05-17 20:18:00,63.4,45.2,30.14,West,270,0.0,0.0,51,-99.99,,,-99.99,tws,2013-05-18 00:18:00,
2013-05-17 20:23:00,64.8,45.9,30.14,West,270,0.0,0.0,49,-99.99,,,-99.99,tws,2013-05-18 00:23:00,
2013-05-17 20:28:00,64.7,46.2,30.14,SSW,202,0.0,0.0,50,-99.99,,,-99.99,tws,2013-05-18 00:28:00,
2013-05-17 20:33:00,64.2,46.4,30.14,SSE,157,0.0,0.0,52,-99.99,,,-99.99,tws,2013-05-18 00:33:00,
2013-05-17 20:38:00,63.4,47.3,30.14,SSE,157,0.0,0.0,55,-99.99,,,-99.99,tws,2013-05-18 00:38:00,
2013-05-17 20:43:00,62.2,46.1,30.14,SSE,157,0.0,0.0,55,-99.99,,,-99.99,tws,2013-05-18 00:43:00,
2013-05-17 20:48:00,62.2,46.4,30.15,SSE,157,0.0,0.0,55,-99.99,,,-99.99,tws,2013-05-18 00:48:00,
2013-05-17 20:53:00,61.5,46.7,30.15,SSE,157,0.0,0.0,57,-99.99,,,-99.99,tws,2013-05-18 00:53:00,
2013-05-17 20:58:00,60.5,46.5,30.15,West,270,0.0,0.0,59,-99.99,,,-99.99,tws,2013-05-18 00:58:00,
2013-05-17 21:03:00,59.5,45.9,30.16,West,270,0.0,0.0,60,-99.99,,,-99.99,tws,2013-05-18 01:03:00,
2013-05-17 21:08:00,60.2,45.2,30.16,West,270,0.0,0.0,57,-99.99,,,-99.99,tws,2013-05-18 01:08:00,
2013-05-17 21:13:00,61.2,45.6,30.16,West,270,0.0,0.0,56,-99.99,,,-99.99,tws,2013-05-18 01:13:00,
2013-05-17 21:18:00,61.8,45.9,30.16,West,270,0.0,0.0,55,-99.99,,,-99.99,tws,2013-05-18 01:18:00,
2013-05-17 21:23:00,61.0,46.4,30.16,West,270,0.0,0.0,58,-99.99,,,-99.99,tws,2013-05-18 01:23:00,
2013-05-17 21:29:00,59.4,46.8,30.17,West,270,0.0,0.0,62,-99.99,,,-99.99,tws,2013-05-18 01:29:00,
2013-05-17 21:34:00,60.4,47.5,30.17,NNE,22,0.0,0.0,62,-99.99,,,-99.99,tws,2013-05-18 01:34:00,
2013-05-17 21:39:00,58.3,47.1,30.17,NNW,337,0.0,0.0,65,-99.99,,,-99.99,tws,2013-05-18 01:39:00,
2013-05-17 21:44:00,59.4,47.6,30.17,North,360,0.0,0.0,64,-99.99,,,-99.99,tws,2013-05-18 01:44:00,
2013-05-17 21:49:00,59.4,47.6,30.18,North,360,0.0,0.0,64,-99.99,,,-99.99,tws,2013-05-18 01:49:00,
2013-05-17 21:54:00,58.2,48.4,30.18,ESE,112,0.0,0.0,69,-99.99,,,-99.99,tws,2013-05-18 01:54:00,
2013-05-17 21:59:00,56.7,48.0,30.18,SSW,202,0.0,0.0,72,-99.99,,,-99.99,tws,2013-05-18 01:59:00,
2013-05-17 22:04:00,57.2,48.1,30.18,South,180,0.0,0.0,71,-99.99,,,-99.99,tws,2013-05-18 02:04:00,
2013-05-17 22:09:00,56.8,47.9,30.18,SE,135,0.0,0.0,71,-99.99,,,-99.99,tws,2013-05-18 02:09:00,
2013-05-17 22:14:00,56.5,47.8,30.18,SE,135,3.4,3.4,72,-99.99,,,-99.99,tws,2013-05-18 02:14:00,
2013-05-17 22:19:00,56.4,47.8,30.18,SE,135,3.7,3.7,72,-99.99,,,-99.99,tws,2013-05-18 02:19:00,
2013-05-17 22:24:00,56.5,47.7,30.18,SE,135,0.0,0.0,71,-99.99,,,-99.99,tws,2013-05-18 02:24:00,
2013-05-17 22:29:00,56.9,47.9,30.18,SE,135,0.0,0.0,71,-99.99,,,-99.99,tws,2013-05-18 02:29:00,
2013-05-17 22:34:00,56.9,47.6,30.18,SSE,157,0.0,0.0,70,-99.99,,,-99.99,tws,2013-05-18 02:34:00,
2013-05-17 22:39:00,56.4,47.9,30.18,SSE,157,0.0,0.0,72,-99.99,,,-99.99,tws,2013-05-18 02:39:00,
2013-05-17 22:44:00,56.4,47.8,30.19,SSE,157,0.0,0.0,72,-99.99,,,-99.99,tws,2013-05-18 02:44:00,
2013-05-17 22:49:00,55.7,47.7,30.18,SSE,157,0.0,0.0,74,-99.99,,,-99.99,tws,2013-05-18 02:49:00,
2013-05-17 22:54:00,55.3,47.8,30.19,NE,45,0.0,0.0,75,-99.99,,,-99.99,tws,2013-05-18 02:54:00,
2013-05-17 22:59:00,53.2,47.0,30.19,NNE,22,1.2,1.2,79,-99.99,,,-99.99,tws,2013-05-18 02:59:00,
2013-05-17 23:04:00,54.0,47.2,30.20,NE,45,0.0,0.0,77,-99.99,,,-99.99,tws,2013-05-18 03:04:00,
2013-05-17 23:09:00,54.5,46.8,30.20,East,90,0.0,0.0,74,-99.99,,,-99.99,tws,2013-05-18 03:09:00,
2013-05-17 23:14:00,55.2,47.2,30.20,East,90,0.0,0.0,74,-99.99,,,-99.99,tws,2013-05-18 03:14:00,
2013-05-17 23:19:00,53.5,46.8,30.20,SE,135,0.0,0.0,77,-99.99,,,-99.99,tws,2013-05-18 03:19:00,
2013-05-17 23:24:00,53.7,46.8,30.20,SSE,157,0.0,0.0,77,-99.99,,,-99.99,tws,2013-05-18 03:24:00,
2013-05-17 23:29:00,53.3,46.7,30.20,South,180,0.0,0.0,78,-99.99,,,-99.99,tws,2013-05-18 03:29:00,
2013-05-17 23:34:00,53.6,46.7,30.20,South,180,0.0,0.0,77,-99.99,,,-99.99,tws,2013-05-18 03:34:00,
2013-05-17 23:39:00,52.4,46.4,30.20,East,90,0.0,0.0,79,-99.99,,,-99.99,tws,2013-05-18 03:39:00,
2013-05-17 23:44:00,51.5,46.4,30.20,ENE,67,0.0,0.0,82,-99.99,,,-99.99,tws,2013-05-18 03:44:00,
2013-05-17 23:49:00,51.7,47.0,30.20,East,90,0.0,0.0,83,-99.99,,,-99.99,tws,2013-05-18 03:49:00,
2013-05-17 23:54:00,51.6,46.8,30.20,ESE,112,0.0,0.0,83,-99.99,,,-99.99,tws,2013-05-18 03:54:00,
2013-05-17 23:59:00,52.0,47.0,30.20,ESE,112,0.0,0.0,82,-99.99,,,-99.99,tws,2013-05-18 03:59:00,